Flight Track Log - Related Links

Times and Time Zones

All times are in EDT time to prevent confusion due to time zone crossing. See the MAL7056 flight status page for this flight to view local times or setup timezone preferences in your user account.


Time Position Orientation Groundspeed Altitude Reporting Facility
EDT Latitude Longitude Course Direction KTS MPH feet Rate Location/Type
Fri 03:58:00 PM 48.3103 -81.4881 196° South  Level FlightAware Approximate
Fri 03:59:00 PM 48.3016 -81.4217 101° East  Level FlightAware Approximate
Fri 04:00:00 PM 48.2580 -81.4050 168° South  Level Estimated
Fri 04:01:00 PM 48.2158 -81.3816 160° South  Level FlightAware Approximate
Fri 04:02:00 PM 48.1736 -81.3582 160° South  Level FlightAware Approximate
Fri 04:03:00 PM 48.1314 -81.3348 160° South  Level FlightAware Approximate
Fri 04:04:00 PM 48.0892 -81.3115 160° South  Level FlightAware Approximate
Fri 04:05:00 PM 48.0470 -81.2883 160° South  Level FlightAware Approximate
Fri 04:06:00 PM 48.0047 -81.2650 160° South  Level FlightAware Approximate
Fri 04:07:00 PM 47.9625 -81.2418 160° South  Level FlightAware Approximate
Fri 04:08:00 PM 47.9203 -81.2187 160° South  Level FlightAware Approximate
Fri 04:09:00 PM 47.8781 -81.1956 160° South  Level FlightAware Approximate
Fri 04:10:00 PM 47.8358 -81.1725 160° South  Level FlightAware Approximate
Fri 04:11:00 PM 47.7936 -81.1495 160° South  Level FlightAware Approximate
Fri 04:12:00 PM 47.7495 -81.1359 168° South  Level Estimated
Fri 04:13:00 PM 47.7057 -81.1209 167° South  Level FlightAware Approximate
Fri 04:14:00 PM 47.6618 -81.1059 167° South  Level FlightAware Approximate
Fri 04:15:00 PM 47.6180 -81.0910 167° South  Level FlightAware Approximate
Fri 04:16:00 PM 47.5742 -81.0760 167° South  Level FlightAware Approximate
Fri 04:17:00 PM 47.5303 -81.0611 167° South  Level FlightAware Approximate
Fri 04:18:00 PM 47.4865 -81.0462 167° South  Level FlightAware Approximate
Fri 04:18:03 PM 47.6000 -81.0667 169° South 150 173 7,100  Level Toronto Center
Fri 04:19:00 PM 47.4426 -81.0313 167° South  Level FlightAware Approximate
Fri 04:19:03 PM 47.5667 -81.0667 180° South 160 184 7,100  Level Toronto Center
Fri 04:20:00 PM 47.3988 -81.0165 167° South  Level FlightAware Approximate
Fri 04:20:03 PM 47.5167 -81.0667 180° South 160 184 7,100  Level Toronto Center
Fri 04:21:00 PM 47.3546 -81.0039 169° South  Level Estimated
Fri 04:21:03 PM 47.4667 -81.0333 156° South 150 173 7,000  Level Toronto Center
Fri 04:22:00 PM 47.3104 -80.9914 169° South  Level FlightAware Approximate
Fri 04:22:03 PM 47.4333 -81.0333 180° South 160 184 6,900  Level Toronto Center
Fri 04:23:00 PM 47.2662 -80.9790 169° South  Level FlightAware Approximate
Fri 04:23:03 PM 47.3833 -81.0167 167° South 160 184 6,800  Level Toronto Center
Fri 04:24:03 PM 47.3500 -80.9833 146° Southeast 160 184 7,000 100 Climbing Toronto Center
Fri 04:25:03 PM 47.3000 -80.9833 180° South 160 184 7,000 -50 Level Toronto Center
Fri 04:26:03 PM 47.2667 -80.9500 146° Southeast 160 184 6,900 -200 Descending Toronto Center
Fri 04:27:03 PM 47.2167 -80.9333 167° South 160 184 6,600 -300 Descending Toronto Center
Fri 04:28:03 PM 47.1667 -80.9333 180° South 160 184 6,300 -400 Descending Toronto Center
Fri 04:29:03 PM 47.1500 -80.9000 126° Southeast 160 184 5,800 -550 Descending Toronto Center
Fri 04:30:03 PM 47.1000 -80.9000 180° South 160 184 5,200 -350 Descending Toronto Center
Fri 04:31:03 PM 47.0667 -80.8833 161° South 160 184 5,100 -50 Descending Toronto Center
Fri 04:32:03 PM 47.0167 -80.8833 180° South 150 173 5,100  Level Toronto Center
Fri 04:33:03 PM 46.9833 -80.8833 180° South 160 184 5,100  Level Toronto Center
Fri 04:34:03 PM 46.9333 -80.8500 156° South 160 184 5,100  Level Toronto Center
Fri 04:35:03 PM 46.8833 -80.8500 180° South 150 173 5,100  Level Toronto Center
Fri 04:36:03 PM 46.8500 -80.8333 161° South 160 184 5,100 -250 Level Toronto Center
Fri 04:37:03 PM 46.8000 -80.8167 167° South 160 184 4,600 -750 Descending Toronto Center
Fri 04:38:03 PM 46.7667 -80.8000 161° South 170 196 3,600 -950 Descending Toronto Center
Fri 04:39:03 PM 46.7167 -80.7667 155° Southeast 170 196 2,700 -650 Descending Toronto Center
Fri 04:40:03 PM 46.6667 -80.7500 167° South 160 184 2,300 -500 Descending Toronto Center
Fri 04:41:03 PM 46.6333 -80.7667 199° South 150 173 1,700 -600 Descending Toronto Center

Login

Don't have an account? Register now (free) for customized features, flight alerts, and more!